Time;durP1;ratioP1;P1;durP2;ratioP2;P2;SDS_P1;SDS_P2;PMS_P1;PMS_P2;Temp;Humidity;BMP_temperature;BMP_pressure;BME280_temperature;BME280_humidity;BME280_pressure;Samples;Min_cycle;Max_cycle;Signal;HPM_P1;HPM_P2
2023/01/04 00:01:44;;;;;;;0.10;0.10;;;;;;;;;;4950456;28;20185;-80
2023/01/04 00:04:10;;;;;;;0.20;0.20;;;;;;;;;;4947965;28;20042;-78
2023/01/04 00:06:36;;;;;;;0.10;0.10;;;;;;;;;;4949072;28;20248;-78
2023/01/04 00:09:02;;;;;;;0.10;0.10;;;;;;;;;;4949794;28;20081;-79
2023/01/04 00:11:28;;;;;;;0.10;0.10;;;;;;;;;;4951463;28;20811;-80
2023/01/04 00:13:56;;;;;;;0.10;0.10;;;;;;;;;;4951580;28;20065;-78
2023/01/04 00:16:22;;;;;;;9.07;1.40;;;;;;;;;;4972220;28;20055;-77
2023/01/04 00:18:49;;;;;;;0.10;0.10;;;;;;;;;;4950978;28;20194;-76
2023/01/04 00:21:16;;;;;;;0.10;0.10;;;;;;;;;;4951611;28;20065;-76
2023/01/04 00:23:44;;;;;;;0.10;0.10;;;;;;;;;;4950162;28;20228;-76
2023/01/04 00:26:12;;;;;;;0.10;0.10;;;;;;;;;;4949755;28;20050;-76
2023/01/04 00:28:38;;;;;;;0.10;0.10;;;;;;;;;;4948935;28;20336;-76
2023/01/04 00:31:05;;;;;;;0.10;0.10;;;;;;;;;;4949652;28;20038;-77
2023/01/04 00:33:32;;;;;;;0.10;0.10;;;;;;;;;;4933189;28;21420;-77
2023/01/04 00:36:02;;;;;;;0.10;0.10;;;;;;;;;;4947181;28;20046;-77
2023/01/04 00:38:28;;;;;;;0.30;0.30;;;;;;;;;;4948231;28;20073;-77
2023/01/04 00:40:54;;;;;;;0.10;0.10;;;;;;;;;;4950247;28;20141;-76
2023/01/04 00:43:20;;;;;;;0.10;0.10;;;;;;;;;;4950342;28;20042;-76
2023/01/04 00:45:46;;;;;;;0.10;0.10;;;;;;;;;;4950499;28;20373;-75
2023/01/04 00:48:12;;;;;;;0.10;0.10;;;;;;;;;;4949725;28;20050;-76
2023/01/04 00:50:38;;;;;;;0.10;0.10;;;;;;;;;;4967726;28;20051;-75
2023/01/04 00:53:04;;;;;;;0.10;0.10;;;;;;;;;;4949505;28;20616;-78
2023/01/04 00:55:30;;;;;;;0.17;0.17;;;;;;;;;;4949085;28;20056;-76
2023/01/04 00:57:58;;;;;;;0.10;0.10;;;;;;;;;;4967233;28;20050;-76
2023/01/04 01:00:24;;;;;;;0.10;0.10;;;;;;;;;;4969867;28;20867;-76
2023/01/04 01:02:50;;;;;;;0.10;0.10;;;;;;;;;;4971728;28;20511;-75
2023/01/04 01:05:16;;;;;;;0.10;0.10;;;;;;;;;;4953792;28;20133;-76
2023/01/04 01:07:42;;;;;;;0.10;0.10;;;;;;;;;;4966624;28;20053;-76
2023/01/04 01:10:08;;;;;;;0.10;0.10;;;;;;;;;;4952723;28;20484;-77
2023/01/04 01:12:34;;;;;;;0.10;0.10;;;;;;;;;;4953260;28;20143;-76
2023/01/04 01:15:00;;;;;;;0.10;0.10;;;;;;;;;;4953521;28;20050;-76
2023/01/04 01:17:26;;;;;;;0.10;0.10;;;;;;;;;;4952043;28;20053;-77
2023/01/04 01:19:52;;;;;;;0.10;0.10;;;;;;;;;;4938792;28;20046;-77
2023/01/04 01:22:18;;;;;;;0.30;0.30;;;;;;;;;;4953032;28;20057;-77
2023/01/04 01:24:44;;;;;;;0.10;0.10;;;;;;;;;;4942955;28;20057;-77
2023/01/04 01:27:10;;;;;;;0.10;0.10;;;;;;;;;;4954974;28;20042;-76
2023/01/04 01:29:36;;;;;;;0.10;0.10;;;;;;;;;;4972701;28;20579;-76
2023/01/04 01:32:03;;;;;;;0.10;0.10;;;;;;;;;;4952400;28;20107;-76
2023/01/04 01:34:29;;;;;;;0.10;0.10;;;;;;;;;;4937051;28;20820;-76
2023/01/04 01:36:55;;;;;;;0.10;0.10;;;;;;;;;;4944966;28;20081;-76
2023/01/04 01:39:21;;;;;;;0.10;0.10;;;;;;;;;;5008361;28;20104;-77
2023/01/04 01:41:47;;;;;;;0.10;0.10;;;;;;;;;;4972318;28;21372;-76
2023/01/04 01:44:13;;;;;;;0.10;0.10;;;;;;;;;;4953115;28;20687;-76
2023/01/04 01:46:41;;;;;;;0.10;0.10;;;;;;;;;;4952914;28;20430;-76
2023/01/04 01:49:19;;;;;;;0.10;0.10;;;;;;;;;;4943016;28;20045;-76
2023/01/04 01:51:45;;;;;;;0.10;0.10;;;;;;;;;;4954073;28;20054;-76
2023/01/04 01:54:19;;;;;;;0.10;0.10;;;;;;;;;;4953004;28;20467;-77
2023/01/04 01:56:47;;;;;;;0.10;0.10;;;;;;;;;;4952480;28;20141;-77
2023/01/04 01:59:14;;;;;;;0.50;0.50;;;;;;;;;;4949737;28;20073;-76
2023/01/04 02:01:41;;;;;;;0.10;0.10;;;;;;;;;;4951565;28;20037;-77
2023/01/04 02:04:07;;;;;;;0.10;0.10;;;;;;;;;;4957830;28;20042;-76
2023/01/04 02:06:36;;;;;;;0.10;0.10;;;;;;;;;;4952640;28;20058;-77
2023/01/04 02:09:03;;;;;;;0.10;0.10;;;;;;;;;;4950874;28;20082;-76
2023/01/04 02:11:29;;;;;;;0.10;0.10;;;;;;;;;;4953427;28;20115;-77
2023/01/04 02:17:04;;;;;;;0.10;0.10;;;;;;;;;;4954753;28;20581;-77
2023/01/04 02:19:36;;;;;;;0.10;0.10;;;;;;;;;;4959417;28;20508;-77
2023/01/04 02:22:21;;;;;;;0.10;0.10;;;;;;;;;;4941959;28;20057;-76
2023/01/04 02:25:07;;;;;;;0.15;0.15;;;;;;;;;;4952089;28;20050;-79
2023/01/04 02:27:42;;;;;;;0.10;0.10;;;;;;;;;;4940136;28;20050;-78
2023/01/04 02:30:23;;;;;;;0.10;0.10;;;;;;;;;;4950972;28;20646;-78
2023/01/04 02:32:56;;;;;;;0.10;0.10;;;;;;;;;;4952410;28;20054;-78
2023/01/04 02:35:31;;;;;;;0.10;0.10;;;;;;;;;;4951017;28;20061;-77
2023/01/04 02:38:16;;;;;;;0.10;0.10;;;;;;;;;;4951347;28;20386;-77
2023/01/04 02:41:03;;;;;;;0.10;0.10;;;;;;;;;;4951447;28;20070;-76
2023/01/04 02:46:27;;;;;;;0.10;0.10;;;;;;;;;;4950011;28;20056;-77
2023/01/04 02:51:38;;;;;;;0.10;0.10;;;;;;;;;;4982632;28;20050;-77
2023/01/04 02:54:10;;;;;;;0.40;0.40;;;;;;;;;;4983407;28;20054;-77
2023/01/04 02:56:44;;;;;;;0.10;0.10;;;;;;;;;;4970551;28;20137;-77
2023/01/04 02:59:25;;;;;;;0.10;0.10;;;;;;;;;;4951405;28;20055;-76
2023/01/04 03:07:34;;;;;;;0.10;0.10;;;;;;;;;;4952119;28;20060;-77
2023/01/04 03:10:05;;;;;;;0.00;0.00;;;;;;;;;;4951530;28;20144;-78
2023/01/04 03:12:34;;;;;;;0.30;0.30;;;;;;;;;;4952417;28;20549;-78
2023/01/04 03:15:09;;;;;;;0.40;0.40;;;;;;;;;;4952424;28;20057;-77
2023/01/04 03:17:44;;;;;;;0.10;0.10;;;;;;;;;;4970837;28;20158;-77
2023/01/04 03:20:12;;;;;;;1.23;0.98;;;;;;;;;;4949696;28;20042;-77
2023/01/04 03:36:58;;;;;;;0.10;0.10;;;;;;;;;;4941524;28;20065;-77
2023/01/04 03:48:58;;;;;;;0.10;0.10;;;;;;;;;;4877694;28;20664;-77
2023/01/04 03:51:29;;;;;;;0.10;0.10;;;;;;;;;;4934140;28;20048;-77
2023/01/04 03:54:13;;;;;;;0.10;0.10;;;;;;;;;;4930765;28;20471;-77
2023/01/04 03:56:41;;;;;;;0.10;0.10;;;;;;;;;;4931236;28;20051;-78
2023/01/04 03:59:08;;;;;;;0.10;0.10;;;;;;;;;;4927615;28;20059;-76
2023/01/04 04:01:35;;;;;;;0.10;0.10;;;;;;;;;;4929652;28;20054;-77
2023/01/04 04:09:31;;;;;;;0.10;0.10;;;;;;;;;;4932010;28;20714;-77
2023/01/04 04:11:58;;;;;;;0.10;0.10;;;;;;;;;;4930384;28;20116;-77
2023/01/04 04:14:24;;;;;;;0.10;0.10;;;;;;;;;;4928578;28;20051;-77
2023/01/04 04:16:50;;;;;;;0.10;0.10;;;;;;;;;;4963270;28;20735;-77
2023/01/04 04:19:16;;;;;;;0.30;0.30;;;;;;;;;;4928498;28;20047;-77
2023/01/04 04:21:42;;;;;;;0.10;0.10;;;;;;;;;;4931735;28;20047;-77
2023/01/04 04:24:15;;;;;;;0.10;0.10;;;;;;;;;;4929768;28;20525;-77
2023/01/04 04:26:41;;;;;;;0.10;0.10;;;;;;;;;;4931420;28;20051;-78
2023/01/04 04:29:07;;;;;;;0.10;0.10;;;;;;;;;;4921108;28;20512;-77
2023/01/04 04:31:33;;;;;;;;;;;;;;;;;;4931848;28;20047;-77
2023/01/04 04:33:59;;;;;;;;;;;;;;;;;;4945507;28;19934;-77
2023/01/04 04:36:25;;;;;;;;;;;;;;;;;;4933732;28;19922;-77
2023/01/04 04:38:51;;;;;;;;;;;;;;;;;;4961109;28;19937;-77
2023/01/04 04:44:02;;;;;;;;;;;;;;;;;;4983849;28;19925;-77
2023/01/04 04:46:28;;;;;;;;;;;;;;;;;;4972866;28;19964;-77
2023/01/04 04:48:54;;;;;;;;;;;;;;;;;;4953886;28;19936;-77
2023/01/04 04:51:20;;;;;;;;;;;;;;;;;;4975218;28;19922;-78
2023/01/04 04:53:45;;;;;;;;;;;;;;;;;;4982714;28;20447;-78
2023/01/04 04:56:12;;;;;;;;;;;;;;;;;;4954559;28;19921;-77
2023/01/04 04:58:38;;;;;;;;;;;;;;;;;;4986731;28;19929;-78
2023/01/04 05:01:03;;;;;;;;;;;;;;;;;;4955540;28;20307;-78
2023/01/04 05:03:29;;;;;;;;;;;;;;;;;;4953976;28;20307;-78
2023/01/04 05:05:55;;;;;;;;;;;;;;;;;;4955502;28;20303;-78
2023/01/04 05:08:21;;;;;;;;;;;;;;;;;;4955726;28;20280;-77
2023/01/04 05:10:47;;;;;;;;;;;;;;;;;;4970290;28;19922;-77
2023/01/04 05:13:13;;;;;;;0.25;0.25;;;;;;;;;;4953100;28;19973;-77
2023/01/04 05:15:41;;;;;;;0.10;0.10;;;;;;;;;;4953899;28;20394;-79
2023/01/04 05:18:07;;;;;;;0.10;0.10;;;;;;;;;;4954785;28;20046;-78
2023/01/04 05:20:34;;;;;;;0.10;0.10;;;;;;;;;;4954528;28;20057;-78
2023/01/04 05:23:00;;;;;;;0.10;0.10;;;;;;;;;;4953987;28;20051;-78
2023/01/04 05:25:26;;;;;;;0.10;0.10;;;;;;;;;;4952677;28;20181;-78
2023/01/04 05:27:52;;;;;;;0.10;0.10;;;;;;;;;;4954459;28;20463;-78
2023/01/04 05:33:04;;;;;;;0.08;0.08;;;;;;;;;;4954682;28;20098;-78
2023/01/04 05:35:31;;;;;;;0.10;0.10;;;;;;;;;;4971409;28;20038;-78
2023/01/04 05:37:57;;;;;;;0.10;0.10;;;;;;;;;;4937718;28;20052;-78
2023/01/04 05:40:23;;;;;;;0.10;0.10;;;;;;;;;;4933416;28;20086;-78
2023/01/04 05:42:49;;;;;;;0.10;0.10;;;;;;;;;;4932581;28;20417;-80
2023/01/04 05:45:16;;;;;;;0.28;0.28;;;;;;;;;;4931835;28;20040;-78
2023/01/04 05:47:42;;;;;;;0.10;0.10;;;;;;;;;;4934528;28;20721;-79
2023/01/04 05:50:09;;;;;;;0.10;0.10;;;;;;;;;;4931991;28;20090;-78
2023/01/04 05:52:35;;;;;;;0.10;0.10;;;;;;;;;;4933181;28;20039;-78
2023/01/04 05:55:01;;;;;;;0.10;0.10;;;;;;;;;;4931218;28;20486;-78
2023/01/04 05:57:27;;;;;;;0.10;0.10;;;;;;;;;;4931972;28;22046;-79
2023/01/04 05:59:53;;;;;;;0.00;0.00;;;;;;;;;;4932318;28;20413;-78
2023/01/04 06:02:20;;;;;;;0.10;0.10;;;;;;;;;;4931283;28;20043;-78
2023/01/04 06:04:47;;;;;;;0.10;0.10;;;;;;;;;;4931981;28;20059;-77
2023/01/04 06:07:13;;;;;;;0.10;0.10;;;;;;;;;;4931052;28;20047;-78
2023/01/04 06:09:39;;;;;;;0.10;0.10;;;;;;;;;;4931963;28;20047;-78
2023/01/04 06:12:06;;;;;;;0.10;0.10;;;;;;;;;;4932243;28;20061;-78
2023/01/04 06:14:35;;;;;;;0.10;0.10;;;;;;;;;;4922123;28;20039;-79
2023/01/04 06:17:01;;;;;;;0.00;0.00;;;;;;;;;;4963054;28;20740;-79
2023/01/04 06:19:27;;;;;;;0.10;0.10;;;;;;;;;;4946783;28;20055;-78
2023/01/04 06:21:53;;;;;;;0.10;0.10;;;;;;;;;;4931600;28;20051;-80
2023/01/04 06:24:19;;;;;;;0.10;0.10;;;;;;;;;;4964727;28;20046;-78
2023/01/04 06:26:46;;;;;;;0.10;0.10;;;;;;;;;;4931824;28;20406;-78
2023/01/04 06:29:12;;;;;;;0.10;0.10;;;;;;;;;;4933703;28;20390;-79
2023/01/04 06:31:38;;;;;;;0.10;0.10;;;;;;;;;;4933564;28;20046;-76
2023/01/04 06:34:04;;;;;;;0.10;0.10;;;;;;;;;;4932490;28;20113;-87
2023/01/04 06:36:30;;;;;;;0.10;0.10;;;;;;;;;;4933789;28;20101;-79
2023/01/04 06:38:57;;;;;;;0.10;0.10;;;;;;;;;;4951518;28;20058;-84
2023/01/04 06:41:23;;;;;;;0.10;0.10;;;;;;;;;;4952707;28;20041;-83
2023/01/04 06:43:49;;;;;;;0.00;0.00;;;;;;;;;;4951765;28;20141;-85
2023/01/04 06:46:15;;;;;;;0.10;0.10;;;;;;;;;;4955014;28;20158;-81
2023/01/04 06:48:42;;;;;;;0.10;0.10;;;;;;;;;;4957549;28;20421;-80
2023/01/04 06:51:08;;;;;;;0.10;0.10;;;;;;;;;;4984664;28;20058;-79
2023/01/04 06:53:34;;;;;;;0.10;0.10;;;;;;;;;;4967144;28;20055;-77
2023/01/04 06:56:00;;;;;;;0.10;0.10;;;;;;;;;;4953206;28;20046;-74
2023/01/04 06:58:26;;;;;;;0.10;0.10;;;;;;;;;;4951425;28;20085;-75
2023/01/04 07:00:53;;;;;;;0.10;0.10;;;;;;;;;;4954586;28;20074;-75
2023/01/04 07:03:19;;;;;;;0.10;0.10;;;;;;;;;;4949733;28;20069;-78
2023/01/04 07:05:45;;;;;;;0.17;0.17;;;;;;;;;;4946911;28;20526;-78
2023/01/04 07:08:12;;;;;;;0.10;0.10;;;;;;;;;;4950356;28;20050;-77
2023/01/04 07:10:39;;;;;;;0.10;0.10;;;;;;;;;;4970530;28;20061;-78
2023/01/04 07:13:05;;;;;;;0.08;0.08;;;;;;;;;;4970753;28;20046;-77
2023/01/04 07:15:31;;;;;;;0.10;0.10;;;;;;;;;;4950719;28;20050;-77
2023/01/04 07:17:57;;;;;;;0.10;0.10;;;;;;;;;;4951755;28;20051;-77
2023/01/04 07:20:25;;;;;;;0.10;0.10;;;;;;;;;;4951658;28;20042;-77
2023/01/04 07:22:51;;;;;;;0.10;0.10;;;;;;;;;;4954213;28;20141;-77
2023/01/04 07:25:17;;;;;;;0.40;0.40;;;;;;;;;;4951923;28;20541;-77
2023/01/04 07:27:43;;;;;;;0.08;0.08;;;;;;;;;;4950452;28;20046;-78
2023/01/04 07:30:09;;;;;;;0.10;0.10;;;;;;;;;;4953827;28;20053;-77
2023/01/04 07:32:36;;;;;;;0.10;0.10;;;;;;;;;;4957164;28;20050;-77
2023/01/04 07:35:02;;;;;;;0.10;0.10;;;;;;;;;;4956339;28;20069;-77
2023/01/04 07:37:28;;;;;;;0.10;0.10;;;;;;;;;;4957467;28;20485;-77
2023/01/04 07:39:54;;;;;;;0.00;0.00;;;;;;;;;;4956284;28;20077;-77
2023/01/04 07:42:20;;;;;;;0.10;0.10;;;;;;;;;;4970258;28;20043;-77
2023/01/04 07:44:46;;;;;;;0.10;0.10;;;;;;;;;;4970407;28;20047;-77
2023/01/04 07:47:13;;;;;;;0.10;0.10;;;;;;;;;;4973087;28;20244;-78
2023/01/04 07:49:39;;;;;;;0.10;0.10;;;;;;;;;;4976519;28;20049;-79
2023/01/04 07:52:05;;;;;;;0.22;0.22;;;;;;;;;;4957199;28;20810;-78
2023/01/04 07:54:31;;;;;;;0.10;0.10;;;;;;;;;;4955860;28;20407;-79
2023/01/04 07:56:57;;;;;;;0.10;0.10;;;;;;;;;;4957010;28;20042;-78
2023/01/04 07:59:23;;;;;;;0.20;0.20;;;;;;;;;;4976023;28;20072;-78
2023/01/04 08:01:50;;;;;;;0.10;0.10;;;;;;;;;;4989462;28;20508;-78
2023/01/04 08:04:16;;;;;;;0.28;0.28;;;;;;;;;;4956957;28;20061;-78
2023/01/04 08:06:45;;;;;;;0.10;0.10;;;;;;;;;;4948639;28;20057;-77
2023/01/04 08:09:11;;;;;;;0.00;0.00;;;;;;;;;;4950222;28;20073;-78
2023/01/04 08:11:38;;;;;;;0.10;0.10;;;;;;;;;;4954620;28;20125;-78
2023/01/04 08:14:04;;;;;;;0.10;0.10;;;;;;;;;;4954347;28;20068;-79
2023/01/04 08:16:31;;;;;;;0.10;0.10;;;;;;;;;;4954767;28;20046;-77
2023/01/04 08:19:01;;;;;;;0.10;0.10;;;;;;;;;;4953571;28;20054;-77
2023/01/04 08:21:28;;;;;;;0.10;0.10;;;;;;;;;;4973853;28;20068;-80
2023/01/04 08:23:54;;;;;;;0.10;0.10;;;;;;;;;;4958017;28;20049;-78
2023/01/04 08:26:23;;;;;;;0.10;0.10;;;;;;;;;;4959473;28;20043;-77
2023/01/04 08:28:49;;;;;;;0.10;0.10;;;;;;;;;;4959217;28;20083;-77
2023/01/04 08:31:20;;;;;;;0.10;0.10;;;;;;;;;;4953939;28;20078;-77
2023/01/04 08:33:47;;;;;;;0.00;0.00;;;;;;;;;;4958806;28;20057;-78
2023/01/04 08:36:23;;;;;;;0.10;0.10;;;;;;;;;;4958866;28;20199;-77
2023/01/04 08:38:50;;;;;;;0.00;0.00;;;;;;;;;;4960589;28;20089;-77
2023/01/04 08:41:17;;;;;;;0.10;0.10;;;;;;;;;;4959269;28;20120;-77
2023/01/04 08:43:43;;;;;;;0.10;0.10;;;;;;;;;;4959798;28;20057;-77
2023/01/04 08:46:10;;;;;;;0.10;0.10;;;;;;;;;;4979565;28;20053;-76
2023/01/04 08:48:36;;;;;;;0.10;0.10;;;;;;;;;;4960386;28;20045;-77
2023/01/04 08:51:04;;;;;;;0.10;0.10;;;;;;;;;;4960572;28;20125;-77
2023/01/04 08:53:30;;;;;;;0.10;0.10;;;;;;;;;;4957970;28;20328;-77
2023/01/04 08:55:58;;;;;;;0.10;0.10;;;;;;;;;;4959737;28;20133;-77
2023/01/04 08:58:24;;;;;;;0.10;0.10;;;;;;;;;;4991620;28;20050;-77
2023/01/04 09:00:50;;;;;;;0.10;0.10;;;;;;;;;;4959314;28;20046;-77
2023/01/04 09:03:16;;;;;;;0.10;0.10;;;;;;;;;;4958382;28;20086;-76
2023/01/04 09:05:43;;;;;;;0.10;0.10;;;;;;;;;;4958858;28;20061;-77
2023/01/04 09:08:09;;;;;;;0.20;0.20;;;;;;;;;;4959038;28;20076;-77
2023/01/04 09:10:39;;;;;;;0.10;0.10;;;;;;;;;;4978619;28;20069;-77
2023/01/04 09:13:05;;;;;;;0.17;0.17;;;;;;;;;;4978046;28;20244;-77
2023/01/04 09:15:32;;;;;;;0.10;0.10;;;;;;;;;;4959686;28;20046;-76
2023/01/04 09:17:58;;;;;;;0.10;0.10;;;;;;;;;;4958097;28;20057;-77
2023/01/04 09:20:24;;;;;;;0.10;0.10;;;;;;;;;;4958586;28;20105;-77
2023/01/04 09:22:50;;;;;;;0.03;0.03;;;;;;;;;;4959966;28;20050;-77
2023/01/04 09:25:16;;;;;;;0.10;0.10;;;;;;;;;;4955667;28;20064;-77
2023/01/04 09:27:44;;;;;;;0.10;0.10;;;;;;;;;;4957562;28;20057;-76
2023/01/04 09:30:10;;;;;;;0.10;0.10;;;;;;;;;;4958752;28;20061;-77
2023/01/04 09:32:36;;;;;;;0.10;0.10;;;;;;;;;;4958651;28;20050;-77
2023/01/04 09:35:02;;;;;;;0.10;0.10;;;;;;;;;;4957234;28;20050;-76
2023/01/04 09:37:28;;;;;;;0.10;0.10;;;;;;;;;;4977703;28;20054;-77
2023/01/04 09:39:54;;;;;;;0.10;0.10;;;;;;;;;;4959591;28;20058;-80
2023/01/04 09:42:24;;;;;;;0.13;0.13;;;;;;;;;;4990250;28;20396;-81
2023/01/04 09:44:51;;;;;;;0.00;0.00;;;;;;;;;;4956145;28;20050;-82
2023/01/04 09:47:21;;;;;;;5.68;3.03;;;;;;;;;;4959432;28;20049;-82
2023/01/04 09:49:53;;;;;;;0.10;0.10;;;;;;;;;;4956855;28;20053;-82
2023/01/04 09:52:21;;;;;;;0.10;0.10;;;;;;;;;;4952883;28;20141;-79
2023/01/04 09:54:50;;;;;;;0.10;0.10;;;;;;;;;;4954162;28;20055;-82
2023/01/04 09:57:22;;;;;;;0.10;0.10;;;;;;;;;;4952738;28;20378;-84
2023/01/04 09:59:51;;;;;;;0.10;0.10;;;;;;;;;;4983563;28;20046;-80
2023/01/04 10:02:20;;;;;;;0.10;0.10;;;;;;;;;;4951807;28;20154;-81
2023/01/04 10:04:50;;;;;;;0.10;0.10;;;;;;;;;;4951999;28;20075;-83
2023/01/04 10:07:26;;;;;;;0.10;0.10;;;;;;;;;;4972549;28;21141;-83
2023/01/04 10:09:52;;;;;;;0.32;0.32;;;;;;;;;;4952519;28;20049;-80
2023/01/04 10:12:37;;;;;;;1.42;1.33;;;;;;;;;;4940460;28;20336;-83
2023/01/04 10:15:29;;;;;;;0.10;0.10;;;;;;;;;;4953455;28;20069;-83
2023/01/04 10:17:58;;;;;;;0.10;0.10;;;;;;;;;;4949842;28;20879;-77
2023/01/04 10:20:27;;;;;;;0.10;0.10;;;;;;;;;;4970734;28;20057;-77
2023/01/04 10:22:56;;;;;;;0.00;0.00;;;;;;;;;;4952305;28;20114;-82
2023/01/04 10:25:22;;;;;;;0.10;0.10;;;;;;;;;;4944477;28;20057;-78
2023/01/04 10:28:04;;;;;;;0.10;0.10;;;;;;;;;;4970806;28;20042;-77
2023/01/04 10:30:42;;;;;;;0.10;0.10;;;;;;;;;;4971323;28;20050;-81
2023/01/04 10:33:13;;;;;;;0.00;0.00;;;;;;;;;;4951255;28;20165;-81
2023/01/04 10:35:42;;;;;;;0.10;0.10;;;;;;;;;;4951343;28;20046;-76
2023/01/04 10:38:38;;;;;;;0.10;0.10;;;;;;;;;;4938618;28;20159;-81
2023/01/04 10:41:08;;;;;;;0.10;0.10;;;;;;;;;;4953476;28;20050;-88
2023/01/04 10:43:38;;;;;;;0.10;0.10;;;;;;;;;;4954461;28;20497;-79
2023/01/04 10:46:04;;;;;;;0.65;0.63;;;;;;;;;;4952437;28;20042;-81
2023/01/04 10:48:37;;;;;;;0.00;0.00;;;;;;;;;;4988101;28;20480;-81
2023/01/04 10:51:05;;;;;;;0.10;0.10;;;;;;;;;;4928646;28;20046;-83
2023/01/04 10:53:37;;;;;;;0.10;0.10;;;;;;;;;;4950800;28;20324;-82
2023/01/04 10:56:22;;;;;;;0.10;0.10;;;;;;;;;;4952721;28;20046;-80
2023/01/04 10:58:48;;;;;;;0.10;0.10;;;;;;;;;;4951893;28;20056;-84
2023/01/04 11:01:18;;;;;;;16.75;1.40;;;;;;;;;;4952346;28;20042;-83
2023/01/04 11:03:50;;;;;;;0.10;0.10;;;;;;;;;;4951809;28;20401;-82
2023/01/04 11:06:19;;;;;;;0.10;0.10;;;;;;;;;;4944023;28;20050;-83
2023/01/04 11:08:49;;;;;;;0.05;0.05;;;;;;;;;;4953365;28;20789;-80
2023/01/04 11:11:18;;;;;;;0.32;0.32;;;;;;;;;;4951441;28;20075;-82
2023/01/04 11:13:44;;;;;;;0.10;0.10;;;;;;;;;;4953397;28;20103;-83
2023/01/04 11:16:10;;;;;;;0.00;0.00;;;;;;;;;;4953532;28;20061;-83
2023/01/04 11:18:39;;;;;;;0.10;0.10;;;;;;;;;;4952314;28;20042;-84
2023/01/04 11:21:07;;;;;;;0.10;0.10;;;;;;;;;;4952601;28;20508;-80
2023/01/04 11:23:33;;;;;;;0.10;0.10;;;;;;;;;;4951434;28;20187;-80
2023/01/04 11:26:01;;;;;;;0.10;0.10;;;;;;;;;;4951867;28;20470;-79
2023/01/04 11:28:29;;;;;;;0.20;0.20;;;;;;;;;;4950590;28;20046;-78
2023/01/04 11:31:08;;;;;;;6.53;1.10;;;;;;;;;;4952585;28;20051;-77
2023/01/04 11:33:52;;;;;;;0.20;0.20;;;;;;;;;;4951418;28;20095;-76
2023/01/04 11:36:45;;;;;;;0.10;0.10;;;;;;;;;;4943276;28;20045;-79
2023/01/04 11:39:17;;;;;;;0.10;0.10;;;;;;;;;;4952739;28;20666;-77
2023/01/04 11:41:57;;;;;;;0.10;0.10;;;;;;;;;;4952108;28;20559;-80
2023/01/04 11:44:23;;;;;;;0.10;0.10;;;;;;;;;;4953200;28;20056;-80
2023/01/04 11:47:04;;;;;;;0.10;0.10;;;;;;;;;;4954781;28;20125;-78
2023/01/04 11:49:35;;;;;;;0.10;0.10;;;;;;;;;;4953531;28;20156;-79
2023/01/04 11:52:01;;;;;;;0.10;0.10;;;;;;;;;;4949587;28;20110;-78
2023/01/04 11:54:27;;;;;;;0.00;0.00;;;;;;;;;;4968114;28;20050;-80
2023/01/04 11:56:58;;;;;;;0.08;0.08;;;;;;;;;;4950207;28;20057;-81
2023/01/04 11:59:24;;;;;;;0.08;0.08;;;;;;;;;;4952723;28;20059;-80
2023/01/04 12:01:51;;;;;;;0.10;0.10;;;;;;;;;;4953924;28;20123;-79
2023/01/04 12:04:17;;;;;;;0.00;0.00;;;;;;;;;;4954706;28;20069;-79
2023/01/04 12:06:43;;;;;;;0.10;0.10;;;;;;;;;;4955170;28;20122;-79
2023/01/04 12:09:12;;;;;;;0.10;0.10;;;;;;;;;;4953402;28;20529;-78
2023/01/04 12:11:41;;;;;;;0.10;0.10;;;;;;;;;;4954094;28;20214;-79
2023/01/04 12:14:17;;;;;;;0.10;0.10;;;;;;;;;;4956364;28;20397;-79
2023/01/04 12:16:52;;;;;;;0.00;0.00;;;;;;;;;;4956762;28;20051;-80
2023/01/04 12:19:19;;;;;;;0.10;0.10;;;;;;;;;;4955886;28;20058;-80
2023/01/04 12:21:47;;;;;;;0.10;0.10;;;;;;;;;;4955547;28;20046;-79
2023/01/04 12:24:16;;;;;;;0.10;0.10;;;;;;;;;;4978730;28;20103;-79
2023/01/04 12:26:42;;;;;;;2.72;1.75;;;;;;;;;;4956745;28;20513;-80
2023/01/04 12:29:23;;;;;;;0.10;0.10;;;;;;;;;;4952347;28;20100;-79
2023/01/04 12:31:53;;;;;;;0.10;0.10;;;;;;;;;;4951514;28;20133;-78
2023/01/04 12:34:24;;;;;;;0.10;0.10;;;;;;;;;;4949328;28;20046;-79
2023/01/04 12:36:50;;;;;;;0.10;0.10;;;;;;;;;;4980643;28;20130;-81
2023/01/04 12:39:16;;;;;;;1.75;1.65;;;;;;;;;;4948877;28;20058;-82
2023/01/04 12:41:59;;;;;;;0.10;0.10;;;;;;;;;;4971260;28;20654;-81
2023/01/04 12:44:45;;;;;;;0.10;0.10;;;;;;;;;;4951620;28;20126;-80
2023/01/04 12:50:06;;;;;;;0.10;0.10;;;;;;;;;;4950832;28;20058;-79
2023/01/04 12:52:32;;;;;;;0.10;0.10;;;;;;;;;;4949128;28;20053;-77
2023/01/04 12:55:03;;;;;;;0.10;0.10;;;;;;;;;;4949809;28;20110;-76
2023/01/04 12:57:34;;;;;;;0.35;0.35;;;;;;;;;;4971677;28;20149;-80
2023/01/04 13:00:13;;;;;;;0.20;0.20;;;;;;;;;;4954672;28;20045;-76
2023/01/04 13:02:46;;;;;;;0.10;0.10;;;;;;;;;;4973130;28;20064;-76
2023/01/04 13:05:18;;;;;;;0.10;0.10;;;;;;;;;;4951861;28;20078;-76
2023/01/04 13:07:50;;;;;;;0.13;0.13;;;;;;;;;;4952358;28;20061;-77
2023/01/04 13:10:20;;;;;;;0.10;0.10;;;;;;;;;;4971178;28;20041;-75
2023/01/04 13:13:18;;;;;;;0.10;0.10;;;;;;;;;;4926854;28;20044;-74
2023/01/04 13:15:47;;;;;;;0.10;0.10;;;;;;;;;;4944178;28;20116;-73
2023/01/04 13:18:36;;;;;;;0.10;0.10;;;;;;;;;;4953787;28;20042;-75
2023/01/04 13:21:10;;;;;;;0.10;0.10;;;;;;;;;;4955721;28;20067;-75
2023/01/04 13:23:36;;;;;;;0.90;0.90;;;;;;;;;;4956445;28;21456;-75
2023/01/04 13:26:21;;;;;;;0.10;0.10;;;;;;;;;;4974906;28;21390;-75
2023/01/04 13:28:47;;;;;;;0.10;0.10;;;;;;;;;;4958922;28;20050;-79
2023/01/04 13:31:13;;;;;;;0.10;0.10;;;;;;;;;;4956233;28;20161;-77
2023/01/04 13:33:39;;;;;;;0.15;0.15;;;;;;;;;;4956867;28;20267;-78
2023/01/04 13:36:11;;;;;;;1.77;0.82;;;;;;;;;;4943761;28;20043;-76
2023/01/04 13:38:39;;;;;;;0.10;0.10;;;;;;;;;;4950723;28;21347;-76
2023/01/04 13:41:17;;;;;;;0.10;0.10;;;;;;;;;;4950546;28;20125;-77
2023/01/04 13:43:52;;;;;;;0.10;0.10;;;;;;;;;;4952178;28;20539;-76
2023/01/04 13:46:20;;;;;;;0.10;0.10;;;;;;;;;;4949519;28;20061;-77
2023/01/04 13:48:48;;;;;;;0.10;0.10;;;;;;;;;;4957426;28;20131;-77
2023/01/04 13:51:23;;;;;;;0.10;0.10;;;;;;;;;;4957568;28;20492;-78
2023/01/04 13:53:53;;;;;;;3.40;2.33;;;;;;;;;;4954891;28;20046;-78
2023/01/04 13:56:23;;;;;;;0.10;0.10;;;;;;;;;;4975445;28;20073;-79
2023/01/04 13:58:49;;;;;;;0.10;0.10;;;;;;;;;;4945111;28;20058;-78
2023/01/04 14:01:26;;;;;;;0.10;0.10;;;;;;;;;;4957654;28;20110;-79
2023/01/04 14:03:59;;;;;;;0.10;0.10;;;;;;;;;;4955321;28;20046;-78
2023/01/04 14:06:26;;;;;;;30.27;2.63;;;;;;;;;;4958875;28;20312;-78
2023/01/04 14:08:52;;;;;;;0.10;0.10;;;;;;;;;;4953161;28;20374;-77
2023/01/04 14:11:57;;;;;;;0.10;0.10;;;;;;;;;;4952794;28;20038;-76
2023/01/04 14:14:05;;;;;;;0.25;0.25;;;;;;;;;;4956115;28;20204;-77
2023/01/04 14:16:31;;;;;;;0.10;0.10;;;;;;;;;;4957630;28;20582;-76
2023/01/04 14:18:57;;;;;;;0.10;0.10;;;;;;;;;;4976511;28;20523;-75
2023/01/04 14:21:33;;;;;;;0.10;0.10;;;;;;;;;;4955571;28;20059;-75
2023/01/04 14:23:59;;;;;;;0.10;0.10;;;;;;;;;;4974775;28;20057;-76
2023/01/04 14:26:32;;;;;;;0.10;0.10;;;;;;;;;;4974586;28;20663;-75
2023/01/04 14:28:58;;;;;;;0.10;0.10;;;;;;;;;;4955541;28;20515;-74
2023/01/04 14:31:29;;;;;;;0.10;0.10;;;;;;;;;;4976378;28;20057;-74
2023/01/04 14:33:56;;;;;;;0.10;0.10;;;;;;;;;;4974984;28;20049;-74
2023/01/04 14:36:25;;;;;;;0.10;0.10;;;;;;;;;;4957329;28;20048;-74
2023/01/04 14:38:51;;;;;;;0.90;0.90;;;;;;;;;;4939234;28;20050;-75
2023/01/04 14:41:17;;;;;;;0.10;0.10;;;;;;;;;;4954064;28;20413;-75
2023/01/04 14:44:10;;;;;;;0.10;0.10;;;;;;;;;;4975779;28;20062;-75
2023/01/04 14:46:37;;;;;;;1.38;1.38;;;;;;;;;;4956043;28;20058;-75
2023/01/04 14:49:03;;;;;;;0.20;0.20;;;;;;;;;;4975131;28;20642;-75
2023/01/04 14:51:33;;;;;;;0.10;0.10;;;;;;;;;;4956098;28;20057;-75
2023/01/04 14:53:59;;;;;;;0.10;0.10;;;;;;;;;;4975785;28;20057;-76
2023/01/04 14:56:25;;;;;;;0.10;0.10;;;;;;;;;;4955388;28;20038;-76
2023/01/04 14:58:51;;;;;;;0.10;0.10;;;;;;;;;;4953565;28;20146;-75
2023/01/04 15:01:17;;;;;;;0.20;0.20;;;;;;;;;;4952157;28;20090;-77
2023/01/04 15:03:43;;;;;;;0.10;0.10;;;;;;;;;;4933505;28;20057;-74
2023/01/04 15:06:09;;;;;;;0.10;0.10;;;;;;;;;;4973795;28;20128;-75
2023/01/04 15:08:36;;;;;;;0.00;0.00;;;;;;;;;;4953269;28;20141;-75
2023/01/04 15:11:02;;;;;;;0.10;0.10;;;;;;;;;;4953858;28;20054;-74
2023/01/04 15:13:30;;;;;;;0.08;0.08;;;;;;;;;;4953724;28;20080;-75
2023/01/04 15:15:56;;;;;;;0.25;0.25;;;;;;;;;;4972970;28;20081;-74
2023/01/04 15:18:22;;;;;;;0.10;0.10;;;;;;;;;;4955718;28;20133;-75
2023/01/04 15:20:49;;;;;;;0.10;0.10;;;;;;;;;;4974951;28;20689;-76
2023/01/04 15:23:15;;;;;;;1.05;1.05;;;;;;;;;;4956735;28;20058;-76
2023/01/04 15:25:41;;;;;;;0.10;0.10;;;;;;;;;;4974721;28;20049;-76
2023/01/04 15:28:07;;;;;;;0.10;0.10;;;;;;;;;;4955799;28;20046;-74
2023/01/04 15:30:34;;;;;;;0.10;0.10;;;;;;;;;;4973654;28;20389;-74
2023/01/04 15:33:00;;;;;;;0.05;0.05;;;;;;;;;;4956763;28;20046;-73
2023/01/04 15:35:26;;;;;;;7.47;4.57;;;;;;;;;;4973361;28;20193;-73
2023/01/04 15:37:52;;;;;;;0.17;0.17;;;;;;;;;;4954591;28;20062;-72
2023/01/04 15:40:21;;;;;;;0.10;0.10;;;;;;;;;;4952478;28;20082;-72
2023/01/04 15:42:59;;;;;;;0.45;0.43;;;;;;;;;;4973577;28;20594;-72
2023/01/04 15:45:26;;;;;;;0.10;0.10;;;;;;;;;;4974012;28;20049;-73
2023/01/04 15:47:55;;;;;;;0.47;0.47;;;;;;;;;;4952729;28;20139;-74
2023/01/04 15:50:21;;;;;;;0.10;0.10;;;;;;;;;;4988722;28;20050;-74